Aviation Digital Data Service (ADDS)

Output produced by METARs form (0440 UTC 21 January 2018)
found at http://aviationweather.gov/adds/metars/
 
KGGG 202322Z 2100/2124 18010KT P6SM OVC015 
     TEMPO 2102/2106 OVC008 
     FM210600 17010KT P6SM OVC008 
     TEMPO 2106/2110 5SM BR OVC005 
     FM211000 18012KT 5SM BR OVC005 
     FM211600 18012G18KT P6SM OVC007 
     FM212000 18014G23KT P6SM VCSH OVC010